หน้าหลัก
METAR-TAF:

METAR-TAF

ท่าอากาศยาน :

จิบูตี, จิบูตี

ละติจูด: 11-33N, ลองจิจูด: 043-10E, ความสูง: 49 ม.

การสังเกตสภาพอากาศปัจจุบัน

รายงานได้ทำขึ้นเมื่อ 54 นาทีที่แล้ว ณ เวลา 18:00 UTC
ลม 8 นอตจากใต้
อุณหภูมิ 34°C
ความชื้น 56%
ความกดอากาศ 1005 hPa
ทัศนวิสัย: 9000 ม.
ท้องฟ้าแจ่มใส
เมฆหมอก,

METAR: HDAM 271800Z 19008KT 9000 HZ SKC 34/24 Q1005

เวลา: 21:54 (18:54 UTC)

การพยากรณ์

รายงานได้ทำขึ้นเมื่อ 1 ชั่วโมงและ 54 นาทีที่แล้ว ณ เวลา 17:00 UTC
การพยากรณ์มีผลตั้งแต่วันที่ 27 ณ เวลา 18 UTC จนถึงวันที่ 28 ณ เวลา 18 UTC
ลม 10 นอตจากใต้/ตะวันออกเฉียงใต้
ทัศนวิสัย 10 กม. หรือมากกว่า
ไม่มีเมฆต่ำกว่า 1,500 ม. และไม่มีเมฆคิวมูโลนิมบัส
กำลังกลายเป็น
ตั้งแต่วันที่ 18 ณ เวลา 00 UTC จนถึงวันที่ 18 ณ เวลา 06 UTC
ลม 10 นอตจากใต้
ทัศนวิสัย: 9000 ม.
มีเมฆน้อยที่ความสูง 2000 ฟุต
เมฆหมอก
กำลังกลายเป็น
ตั้งแต่วันที่ 18 ณ เวลา 06 UTC จนถึงวันที่ 18 ณ เวลา 12 UTC
ลม 10 นอตจากตะวันออกโดยมีลมกระโชกได้ถึง15 นอต
ทัศนวิสัย: 8000 ม.
มีเมฆน้อยที่ความสูง 2300 ฟุต
เมฆหมอก,

TAF: HDAM 271700Z 2718/2818 16010KT CAVOK BECMG 1800/1806 19010KT 9000 HZ FEW020 BECMG 1806/1812 09010G15KT 8000 HZ FEW023

สังเกตการณ์สภาพอากาศและพยากรณ์อากาศของสนามบินมากกว่า 4000 แห่ง (รายงาน METAR และ TAF).

สถานีที่ดูได้จะแสดงไว้ด้วยจุดสีเหลืองและสีแดงบนแผนที่.

เลื่อนเมาส์ไปเหนือจุดเพื่อดูชื่อสถานี.

แล้วคลิกเพื่อดูสังเกตการณ์และการพยากรณ์สภาพอากาศ.

ในการเปลี่ยนแผนที่: คลิกที่ปุ่มสีเขียวที่มีกากบาทสีดำเพื่อซูมเข้า; ที่ปุ่มสีเขียวที่มีขีดเพื่อซูมออก; หรือที่ลูกศรสีเขียวเพื่อไปยังแผนที่ที่อยู่ติดกัน.


METAR-TAF: